createdAt,value
2022-07-26T00:00:16.727Z,0.00
2022-07-26T00:01:16.806Z,0.00
2022-07-26T00:02:18.551Z,0.00
2022-07-26T00:03:16.709Z,0.00
2022-07-26T00:04:16.695Z,0.00
2022-07-26T00:05:16.734Z,0.00
2022-07-26T00:06:16.666Z,0.00
2022-07-26T00:07:17.200Z,0.00
2022-07-26T00:08:16.659Z,0.00
2022-07-26T00:09:16.658Z,0.00
2022-07-26T00:10:16.629Z,0.00
2022-07-26T00:11:16.631Z,0.00
2022-07-26T00:12:16.740Z,0.00
2022-07-26T00:13:16.634Z,0.00
2022-07-26T00:14:16.598Z,0.00
2022-07-26T00:15:16.591Z,0.00
2022-07-26T00:16:16.676Z,0.00
2022-07-26T00:17:16.578Z,0.00
2022-07-26T00:18:16.564Z,0.00
2022-07-26T00:19:16.572Z,0.00
2022-07-26T00:20:16.558Z,0.00
2022-07-26T00:21:16.558Z,0.00
2022-07-26T00:22:16.532Z,0.00
2022-07-26T00:23:16.530Z,0.00
2022-07-26T00:24:16.529Z,0.00
2022-07-26T00:25:16.547Z,0.00
2022-07-26T00:26:16.497Z,0.00
2022-07-26T00:27:16.485Z,0.00
2022-07-26T00:28:16.488Z,0.00
2022-07-26T00:29:16.489Z,0.00
2022-07-26T00:30:16.473Z,0.00
2022-07-26T00:31:16.526Z,0.00
2022-07-26T00:32:16.448Z,0.00
2022-07-26T00:33:16.457Z,0.00
2022-07-26T00:34:16.441Z,0.00
2022-07-26T00:35:16.443Z,0.00
2022-07-26T00:36:16.423Z,0.00
2022-07-26T00:37:20.311Z,0.00
2022-07-26T00:38:16.391Z,0.00
2022-07-26T00:39:16.391Z,0.00
2022-07-26T00:40:16.386Z,0.00
2022-07-26T00:41:16.371Z,0.00
2022-07-26T00:42:16.369Z,0.00
2022-07-26T00:43:16.386Z,0.00
2022-07-26T00:44:16.344Z,0.00
2022-07-26T00:45:16.356Z,0.00
2022-07-26T00:46:16.360Z,0.00
2022-07-26T00:47:16.345Z,0.00
2022-07-26T00:48:16.305Z,0.00
2022-07-26T00:49:16.403Z,0.00
2022-07-26T00:50:16.311Z,0.00
2022-07-26T00:51:16.300Z,0.00
2022-07-26T00:52:16.274Z,0.00
2022-07-26T00:53:16.288Z,0.00
2022-07-26T00:54:16.261Z,0.00
2022-07-26T00:55:16.268Z,0.00
2022-07-26T00:56:16.252Z,0.00
2022-07-26T00:57:16.252Z,0.00
2022-07-26T00:58:16.233Z,0.00
2022-07-26T00:59:16.235Z,0.00
2022-07-26T01:00:16.202Z,0.00
2022-07-26T01:01:16.269Z,0.00
2022-07-26T01:02:16.254Z,0.00
2022-07-26T01:03:16.196Z,0.00
2022-07-26T01:04:16.171Z,0.00
2022-07-26T01:05:16.178Z,0.00
2022-07-26T01:06:16.154Z,0.00
2022-07-26T01:07:16.284Z,0.00
2022-07-26T01:08:16.152Z,0.00
2022-07-26T01:09:16.136Z,0.00
2022-07-26T01:10:16.116Z,0.00
2022-07-26T01:11:16.118Z,0.00
2022-07-26T01:12:16.108Z,0.00
2022-07-26T01:13:16.228Z,0.00
2022-07-26T01:14:16.101Z,0.00
2022-07-26T01:15:16.100Z,0.00
2022-07-26T01:16:16.151Z,0.00
2022-07-26T01:17:16.068Z,0.00
2022-07-26T01:18:16.067Z,0.00
2022-07-26T01:19:16.069Z,0.00
2022-07-26T01:20:16.052Z,0.00
2022-07-26T01:21:16.045Z,0.00
2022-07-26T01:22:16.037Z,0.00
2022-07-26T01:23:16.015Z,0.00
2022-07-26T01:24:16.002Z,0.00
2022-07-26T01:25:16.026Z,0.00
2022-07-26T01:26:15.999Z,0.00
2022-07-26T01:27:15.998Z,0.00
2022-07-26T01:28:19.770Z,0.00
2022-07-26T01:29:15.968Z,0.00
2022-07-26T01:30:15.967Z,0.00
2022-07-26T01:31:16.037Z,0.00
2022-07-26T01:32:15.935Z,0.00
2022-07-26T01:33:15.943Z,0.00
2022-07-26T01:34:15.921Z,0.00
2022-07-26T01:35:15.920Z,0.00
2022-07-26T01:36:15.898Z,0.00
2022-07-26T01:37:15.908Z,0.00
2022-07-26T01:38:15.894Z,0.00
2022-07-26T01:39:15.891Z,0.00
2022-07-26T01:40:15.877Z,0.00
2022-07-26T01:41:15.874Z,0.00
2022-07-26T01:42:15.841Z,0.00
2022-07-26T01:43:15.864Z,0.00
2022-07-26T01:44:15.830Z,0.00
2022-07-26T01:45:15.835Z,0.00
2022-07-26T01:46:15.904Z,0.00
2022-07-26T01:47:15.820Z,0.00
2022-07-26T01:48:15.795Z,0.00
2022-07-26T01:49:15.869Z,0.00
2022-07-26T01:50:15.788Z,0.00
2022-07-26T01:51:15.778Z,0.00
2022-07-26T01:52:15.771Z,0.00
2022-07-26T01:53:15.756Z,0.00
2022-07-26T01:54:15.736Z,0.00
2022-07-26T01:55:15.749Z,0.00
2022-07-26T01:56:15.731Z,0.00
2022-07-26T01:57:15.732Z,0.00
2022-07-26T01:58:15.708Z,0.00
2022-07-26T01:59:15.699Z,0.00
2022-07-26T02:00:15.697Z,0.00
2022-07-26T02:01:15.723Z,0.00
2022-07-26T02:02:15.771Z,0.00
2022-07-26T02:03:15.732Z,0.00
2022-07-26T02:04:15.664Z,0.00
2022-07-26T02:05:15.666Z,0.00
2022-07-26T02:06:15.645Z,0.00
2022-07-26T02:07:15.760Z,0.00
2022-07-26T02:08:15.616Z,0.00
2022-07-26T02:09:15.614Z,0.00
2022-07-26T02:10:15.602Z,0.00
2022-07-26T02:11:15.594Z,0.00
2022-07-26T02:12:15.584Z,0.00
2022-07-26T02:13:15.618Z,0.00
2022-07-26T02:14:25.314Z,0.00
2022-07-26T02:15:15.578Z,0.00
2022-07-26T02:16:15.642Z,0.00
2022-07-26T02:17:15.560Z,0.00
2022-07-26T02:18:15.537Z,0.00
2022-07-26T02:19:15.562Z,0.00
2022-07-26T02:20:15.532Z,0.00
2022-07-26T02:21:15.523Z,0.00
2022-07-26T02:22:15.500Z,0.00
2022-07-26T02:23:15.490Z,0.00
2022-07-26T02:24:15.493Z,0.00
2022-07-26T02:25:15.505Z,0.00
2022-07-26T02:26:15.461Z,0.00
2022-07-26T02:27:15.453Z,0.00
2022-07-26T02:28:15.456Z,0.00
2022-07-26T02:29:15.458Z,0.00
2022-07-26T02:30:15.438Z,0.00
2022-07-26T02:31:15.841Z,0.00
2022-07-26T02:32:15.403Z,0.00
2022-07-26T02:33:15.404Z,0.00
2022-07-26T02:34:15.396Z,0.00
2022-07-26T02:35:15.385Z,0.00
2022-07-26T02:36:15.380Z,0.00
2022-07-26T02:37:15.400Z,0.00
2022-07-26T02:38:15.357Z,0.00
2022-07-26T02:39:15.353Z,0.00
2022-07-26T02:40:19.014Z,0.00
2022-07-26T02:41:15.350Z,0.00
2022-07-26T02:42:15.319Z,0.00
2022-07-26T02:43:15.329Z,0.00
2022-07-26T02:44:15.300Z,0.00
2022-07-26T02:45:15.315Z,0.00
2022-07-26T02:46:15.321Z,0.00
2022-07-26T02:47:15.295Z,0.00
2022-07-26T02:48:15.282Z,0.00
2022-07-26T02:49:15.335Z,0.00
2022-07-26T02:50:15.264Z,0.00
2022-07-26T02:51:15.256Z,0.00
2022-07-26T02:52:15.235Z,0.00
2022-07-26T02:53:15.233Z,0.00
2022-07-26T02:54:15.214Z,0.00
2022-07-26T02:55:15.225Z,0.00
2022-07-26T02:56:15.196Z,0.00
2022-07-26T02:57:15.207Z,0.00
2022-07-26T02:58:15.183Z,0.00
2022-07-26T02:59:15.176Z,0.00
2022-07-26T03:00:15.183Z,0.00
2022-07-26T03:01:15.245Z,0.00
2022-07-26T03:02:15.186Z,0.00
2022-07-26T03:03:15.273Z,0.00
2022-07-26T03:04:15.142Z,0.00
2022-07-26T03:05:15.135Z,0.00
2022-07-26T03:06:15.123Z,0.00
2022-07-26T03:07:15.144Z,0.00
2022-07-26T03:08:15.105Z,0.00
2022-07-26T03:09:15.091Z,0.00
2022-07-26T03:10:15.086Z,0.00
2022-07-26T03:11:15.072Z,0.00
2022-07-26T03:12:15.065Z,0.00
2022-07-26T03:13:15.088Z,0.00
2022-07-26T03:14:15.043Z,0.00
2022-07-26T03:15:15.048Z,0.00
2022-07-26T03:16:17.969Z,0.00
2022-07-26T03:17:15.015Z,0.00
2022-07-26T03:18:15.006Z,0.00
2022-07-26T03:19:15.037Z,0.00
2022-07-26T03:20:14.986Z,0.00
2022-07-26T03:21:14.985Z,0.00
2022-07-26T03:22:14.982Z,0.00
2022-07-26T03:23:14.968Z,0.00
2022-07-26T03:24:14.955Z,0.00
2022-07-26T03:25:14.980Z,0.00
2022-07-26T03:26:14.950Z,0.00
2022-07-26T03:27:14.943Z,0.00
2022-07-26T03:28:19.301Z,0.00
2022-07-26T03:29:14.933Z,0.00
2022-07-26T03:30:14.901Z,0.00
2022-07-26T03:31:14.961Z,0.00
2022-07-26T03:32:14.881Z,0.00
2022-07-26T03:33:14.904Z,0.00
2022-07-26T03:34:14.877Z,0.00
2022-07-26T03:35:14.887Z,0.00
2022-07-26T03:36:15.475Z,0.00
2022-07-26T03:37:14.881Z,0.00
2022-07-26T03:38:14.825Z,0.00
2022-07-26T03:39:14.838Z,0.00
2022-07-26T03:40:14.834Z,0.00
2022-07-26T03:41:14.820Z,0.00
2022-07-26T03:42:14.808Z,0.00
2022-07-26T03:43:14.814Z,0.00
2022-07-26T03:44:14.776Z,0.00
2022-07-26T03:45:14.788Z,0.00
2022-07-26T03:46:14.817Z,0.00
2022-07-26T03:47:14.774Z,0.00
2022-07-26T03:48:14.741Z,0.00
2022-07-26T03:49:17.153Z,0.00
2022-07-26T03:50:14.719Z,0.00
2022-07-26T03:51:14.734Z,0.00
2022-07-26T03:52:14.700Z,0.00
2022-07-26T03:53:14.692Z,0.00
2022-07-26T03:54:14.707Z,0.00
2022-07-26T03:55:14.703Z,0.00
2022-07-26T03:56:14.673Z,0.00
2022-07-26T03:57:14.677Z,0.00
2022-07-26T03:58:14.667Z,0.00
2022-07-26T03:59:14.645Z,0.00
2022-07-26T04:00:14.643Z,0.00
2022-07-26T04:01:14.717Z,0.00
2022-07-26T04:02:14.653Z,0.00
2022-07-26T04:03:14.607Z,0.00
2022-07-26T04:04:14.618Z,0.00
2022-07-26T04:05:14.587Z,0.00
2022-07-26T04:06:14.601Z,0.00
2022-07-26T04:07:14.601Z,0.00
2022-07-26T04:08:14.568Z,0.00
2022-07-26T04:09:14.564Z,0.00
2022-07-26T04:10:14.562Z,0.00
2022-07-26T04:11:14.540Z,0.00
2022-07-26T04:12:14.530Z,0.00
2022-07-26T04:13:14.634Z,0.00
2022-07-26T04:14:14.529Z,0.00
2022-07-26T04:15:14.501Z,0.00
2022-07-26T04:16:14.503Z,0.00
2022-07-26T04:17:14.508Z,0.00
2022-07-26T04:18:14.491Z,0.00
2022-07-26T04:19:14.485Z,0.00
2022-07-26T04:20:14.477Z,0.00
2022-07-26T04:21:14.455Z,0.00
2022-07-26T04:22:14.457Z,0.00
2022-07-26T04:23:14.446Z,0.00
2022-07-26T04:24:14.425Z,0.00
2022-07-26T04:25:14.453Z,0.00
2022-07-26T04:26:14.414Z,0.00
2022-07-26T04:27:14.399Z,0.00
2022-07-26T04:28:14.387Z,0.00
2022-07-26T04:29:14.392Z,0.00
2022-07-26T04:30:15.687Z,0.00
2022-07-26T04:31:14.486Z,0.00
2022-07-26T04:32:14.373Z,0.00
2022-07-26T04:33:14.341Z,0.00
2022-07-26T04:34:14.352Z,0.00
2022-07-26T04:35:14.341Z,0.00
2022-07-26T04:36:14.321Z,0.00
2022-07-26T04:37:14.331Z,0.00
2022-07-26T04:38:14.311Z,0.00
2022-07-26T04:39:14.291Z,0.00
2022-07-26T04:40:14.305Z,0.00
2022-07-26T04:41:14.290Z,0.00
2022-07-26T04:42:14.284Z,0.00
2022-07-26T04:43:15.698Z,0.00
2022-07-26T04:44:14.254Z,0.00
2022-07-26T04:45:14.249Z,0.00
2022-07-26T04:46:14.292Z,0.00
2022-07-26T04:47:14.229Z,0.00
2022-07-26T04:48:14.236Z,0.00
2022-07-26T04:49:14.301Z,0.00
2022-07-26T04:50:14.219Z,0.00
2022-07-26T04:51:14.200Z,0.00
2022-07-26T04:52:14.191Z,0.00
2022-07-26T04:53:14.167Z,0.00
2022-07-26T04:54:14.180Z,0.00
2022-07-26T04:55:14.174Z,0.00
2022-07-26T04:56:14.162Z,0.00
2022-07-26T04:57:14.146Z,0.00
2022-07-26T04:58:14.144Z,0.00
2022-07-26T04:59:18.458Z,0.00
2022-07-26T05:00:21.721Z,0.00
2022-07-26T05:01:14.210Z,0.00
2022-07-26T05:02:14.278Z,0.00
2022-07-26T05:03:14.145Z,0.00
2022-07-26T05:04:14.093Z,0.00
2022-07-26T05:05:14.077Z,0.00
2022-07-26T05:06:14.089Z,0.00
2022-07-26T05:07:14.078Z,0.00
2022-07-26T05:08:14.055Z,0.00
2022-07-26T05:09:14.025Z,0.00
2022-07-26T05:10:14.038Z,0.00
2022-07-26T05:11:14.020Z,0.00
2022-07-26T05:12:14.021Z,0.00
2022-07-26T05:13:14.015Z,0.00
2022-07-26T05:14:14.001Z,0.00
2022-07-26T05:15:14.421Z,0.00
2022-07-26T05:16:13.977Z,0.00
2022-07-26T05:17:14.043Z,0.00
2022-07-26T05:18:13.959Z,0.00
2022-07-26T05:19:13.972Z,5.62
2022-07-26T05:20:13.938Z,0.00
2022-07-26T05:21:13.923Z,5.62
2022-07-26T05:22:13.921Z,5.62
2022-07-26T05:23:13.916Z,5.62
2022-07-26T05:24:13.916Z,5.62
2022-07-26T05:25:13.925Z,5.62
2022-07-26T05:26:13.884Z,5.62
2022-07-26T05:27:13.870Z,5.62
2022-07-26T05:28:13.865Z,5.62
2022-07-26T05:29:13.868Z,5.62
2022-07-26T05:30:13.851Z,5.62
2022-07-26T05:31:13.942Z,11.25
2022-07-26T05:32:13.839Z,11.25
2022-07-26T05:33:16.752Z,5.62
2022-07-26T05:34:13.807Z,5.62
2022-07-26T05:35:13.797Z,5.62
2022-07-26T05:36:13.812Z,5.62
2022-07-26T05:37:13.925Z,11.25
2022-07-26T05:38:13.791Z,11.25
2022-07-26T05:39:16.071Z,11.25
2022-07-26T05:40:13.767Z,11.25
2022-07-26T05:41:13.759Z,11.25
2022-07-26T05:42:13.768Z,11.25
2022-07-26T05:43:13.750Z,5.62
2022-07-26T05:44:13.723Z,5.62
2022-07-26T05:45:13.711Z,5.62
2022-07-26T05:46:13.778Z,5.62
2022-07-26T05:47:13.706Z,5.62
2022-07-26T05:48:13.693Z,5.62
2022-07-26T05:49:13.757Z,11.25
2022-07-26T05:50:13.674Z,11.25
2022-07-26T05:51:13.677Z,11.25
2022-07-26T05:52:13.656Z,11.25
2022-07-26T05:53:13.645Z,11.25
2022-07-26T05:54:13.648Z,11.25
2022-07-26T05:55:13.648Z,11.25
2022-07-26T05:56:13.629Z,11.25
2022-07-26T05:57:13.620Z,11.25
2022-07-26T05:58:13.597Z,5.62
2022-07-26T05:59:13.586Z,11.25
2022-07-26T06:00:13.594Z,5.62
2022-07-26T06:01:13.588Z,5.62
2022-07-26T06:02:13.624Z,5.62
2022-07-26T06:03:13.562Z,5.62
2022-07-26T06:04:13.826Z,5.62
2022-07-26T06:05:13.554Z,0.00
2022-07-26T06:06:13.545Z,0.00
2022-07-26T06:07:13.557Z,0.00
2022-07-26T06:08:13.532Z,0.00
2022-07-26T06:09:13.516Z,0.00
2022-07-26T06:10:13.502Z,0.00
2022-07-26T06:11:13.502Z,0.00
2022-07-26T06:12:13.501Z,0.00
2022-07-26T06:13:13.498Z,0.00
2022-07-26T06:14:14.011Z,0.00
2022-07-26T06:15:14.923Z,0.00
2022-07-26T06:16:13.445Z,0.00
2022-07-26T06:17:13.487Z,0.00
2022-07-26T06:18:13.440Z,0.00
2022-07-26T06:19:13.438Z,0.00
2022-07-26T06:20:13.416Z,0.00
2022-07-26T06:21:13.397Z,0.00
2022-07-26T06:22:13.401Z,5.62
2022-07-26T06:23:13.377Z,5.62
2022-07-26T06:24:13.391Z,5.62
2022-07-26T06:25:13.402Z,5.62
2022-07-26T06:26:13.371Z,5.62
2022-07-26T06:27:13.339Z,5.62
2022-07-26T06:28:13.341Z,5.62
2022-07-26T06:29:13.342Z,5.62
2022-07-26T06:30:13.325Z,5.62
2022-07-26T06:31:13.367Z,11.25
2022-07-26T06:32:13.370Z,11.25
2022-07-26T06:33:13.307Z,11.25
2022-07-26T06:34:13.297Z,11.25
2022-07-26T06:35:13.272Z,11.25
2022-07-26T06:36:13.295Z,5.62
2022-07-26T06:37:13.290Z,5.62
2022-07-26T06:38:13.253Z,5.62
2022-07-26T06:39:13.244Z,5.62
2022-07-26T06:40:13.237Z,5.62
2022-07-26T06:41:13.216Z,5.62
2022-07-26T06:42:13.230Z,5.62
2022-07-26T06:43:13.232Z,5.62
2022-07-26T06:44:13.206Z,5.62
2022-07-26T06:45:13.188Z,5.62
2022-07-26T06:46:13.216Z,5.62
2022-07-26T06:47:13.184Z,5.62
2022-07-26T06:48:13.160Z,5.62
2022-07-26T06:49:13.242Z,5.62
2022-07-26T06:50:13.151Z,5.62
2022-07-26T06:51:13.131Z,5.62
2022-07-26T06:52:13.145Z,5.62
2022-07-26T06:53:13.125Z,5.62
2022-07-26T06:54:13.127Z,5.62
2022-07-26T06:55:13.128Z,5.62
2022-07-26T06:56:13.106Z,5.62
2022-07-26T06:57:13.087Z,5.62
2022-07-26T06:58:13.087Z,5.62
2022-07-26T06:59:13.078Z,5.62
2022-07-26T07:00:13.085Z,5.62
2022-07-26T07:01:13.161Z,5.62
2022-07-26T07:02:13.104Z,5.62
2022-07-26T07:03:13.039Z,5.62
2022-07-26T07:04:13.026Z,11.25
2022-07-26T07:05:13.079Z,11.25
2022-07-26T07:06:13.021Z,11.25
2022-07-26T07:07:13.022Z,16.88
2022-07-26T07:08:12.988Z,16.88
2022-07-26T07:09:12.992Z,16.88
2022-07-26T07:10:12.991Z,16.88
2022-07-26T07:11:12.972Z,22.50
2022-07-26T07:12:12.949Z,22.50
2022-07-26T07:13:12.977Z,22.50
2022-07-26T07:14:12.940Z,22.50
2022-07-26T07:15:12.922Z,28.12
2022-07-26T07:16:12.954Z,28.12
2022-07-26T07:17:16.034Z,28.12
2022-07-26T07:18:12.906Z,28.12
2022-07-26T07:19:12.918Z,28.12
2022-07-26T07:20:12.901Z,28.12
2022-07-26T07:21:12.887Z,28.12
2022-07-26T07:22:13.027Z,28.12
2022-07-26T07:23:12.874Z,22.50
2022-07-26T07:24:12.866Z,22.50
2022-07-26T07:25:14.737Z,22.50
2022-07-26T07:26:12.833Z,22.50
2022-07-26T07:27:12.816Z,22.50
2022-07-26T07:28:12.831Z,22.50
2022-07-26T07:29:12.797Z,22.50
2022-07-26T07:30:12.820Z,22.50
2022-07-26T07:31:12.861Z,22.50
2022-07-26T07:32:15.800Z,28.12
2022-07-26T07:33:21.942Z,28.12
2022-07-26T07:34:12.914Z,33.75
2022-07-26T07:35:13.210Z,33.75
2022-07-26T07:36:12.757Z,28.12
2022-07-26T07:37:12.755Z,28.12
2022-07-26T07:38:12.744Z,22.50
2022-07-26T07:39:17.616Z,22.50
2022-07-26T07:40:12.822Z,16.88
2022-07-26T07:41:12.692Z,16.88
2022-07-26T07:42:12.706Z,16.88
2022-07-26T07:43:12.704Z,22.50
2022-07-26T07:44:12.674Z,22.50
2022-07-26T07:45:12.654Z,28.12
2022-07-26T07:46:12.751Z,33.75
2022-07-26T07:47:12.690Z,39.38
2022-07-26T07:48:12.649Z,39.38
2022-07-26T07:49:13.318Z,39.38
2022-07-26T07:50:12.637Z,45.00
2022-07-26T07:51:12.605Z,45.00
2022-07-26T07:52:12.598Z,45.00
2022-07-26T07:53:12.588Z,45.00
2022-07-26T07:54:12.578Z,45.00
2022-07-26T07:55:40.054Z,45.00
2022-07-26T07:56:12.581Z,39.38
2022-07-26T07:57:13.770Z,39.38
2022-07-26T07:58:12.550Z,39.38
2022-07-26T07:59:12.992Z,39.38
2022-07-26T08:00:12.531Z,39.38
2022-07-26T08:01:13.337Z,39.38
2022-07-26T08:02:12.512Z,45.00
2022-07-26T08:03:12.546Z,45.00
2022-07-26T08:04:12.538Z,45.00
2022-07-26T08:05:15.135Z,45.00
2022-07-26T08:06:12.474Z,45.00
2022-07-26T08:07:12.508Z,45.00
2022-07-26T08:08:12.462Z,39.38
2022-07-26T08:09:13.354Z,39.38
2022-07-26T08:10:12.445Z,39.38
2022-07-26T08:11:12.553Z,39.38
2022-07-26T08:12:12.415Z,39.38
2022-07-26T08:13:12.426Z,45.00
2022-07-26T08:14:12.411Z,50.62
2022-07-26T08:15:12.398Z,56.25
2022-07-26T08:16:12.460Z,56.25
2022-07-26T08:17:12.379Z,56.25
2022-07-26T08:18:12.379Z,56.25
2022-07-26T08:19:12.872Z,56.25
2022-07-26T08:20:15.780Z,56.25
2022-07-26T08:21:12.356Z,50.62
2022-07-26T08:22:12.349Z,45.00
2022-07-26T08:23:12.344Z,39.38
2022-07-26T08:24:17.026Z,39.38
2022-07-26T08:25:12.329Z,33.75
2022-07-26T08:26:12.292Z,39.38
2022-07-26T08:27:12.292Z,39.38
2022-07-26T08:28:24.968Z,45.00
2022-07-26T08:29:12.509Z,45.00
2022-07-26T08:30:12.277Z,45.00
2022-07-26T08:31:12.365Z,45.00
2022-07-26T08:32:12.244Z,45.00
2022-07-26T08:33:12.249Z,45.00
2022-07-26T08:34:12.264Z,50.62
2022-07-26T08:35:19.709Z,50.62
2022-07-26T08:36:12.219Z,50.62
2022-07-26T08:37:17.503Z,50.62
2022-07-26T08:38:12.203Z,50.62
2022-07-26T08:39:12.189Z,50.62
2022-07-26T08:40:12.193Z,50.62
2022-07-26T08:41:12.168Z,50.62
2022-07-26T08:42:12.157Z,50.62
2022-07-26T08:43:12.169Z,45.00
2022-07-26T08:44:12.139Z,45.00
2022-07-26T08:45:12.154Z,45.00
2022-07-26T08:46:12.151Z,45.00
2022-07-26T08:47:12.133Z,45.00
2022-07-26T08:48:17.745Z,50.62
2022-07-26T08:49:12.976Z,50.62
2022-07-26T08:50:12.098Z,56.25
2022-07-26T08:51:12.082Z,56.25
2022-07-26T08:52:12.064Z,56.25
2022-07-26T08:53:12.103Z,56.25
2022-07-26T08:54:12.068Z,56.25
2022-07-26T08:55:12.067Z,56.25
2022-07-26T08:56:12.046Z,56.25
2022-07-26T08:57:12.027Z,56.25
2022-07-26T08:58:12.029Z,56.25
2022-07-26T08:59:17.158Z,61.88
2022-07-26T09:00:11.999Z,61.88
2022-07-26T09:01:12.061Z,61.88
2022-07-26T09:02:11.993Z,61.88
2022-07-26T09:03:11.989Z,61.88
2022-07-26T09:04:13.735Z,61.88
2022-07-26T09:05:11.959Z,61.88
2022-07-26T09:06:11.954Z,67.50
2022-07-26T09:07:11.966Z,73.12
2022-07-26T09:08:11.946Z,73.12
2022-07-26T09:09:12.052Z,78.75
2022-07-26T09:10:11.948Z,90.00
2022-07-26T09:11:11.917Z,78.75
2022-07-26T09:12:11.905Z,78.75
2022-07-26T09:13:11.903Z,78.75
2022-07-26T09:14:11.887Z,78.75
2022-07-26T09:15:11.887Z,73.12
2022-07-26T09:16:11.953Z,73.12
2022-07-26T09:17:11.855Z,67.50
2022-07-26T09:18:11.845Z,67.50
2022-07-26T09:19:11.869Z,61.88
2022-07-26T09:20:11.825Z,67.50
2022-07-26T09:21:11.817Z,67.50
2022-07-26T09:22:11.829Z,67.50
2022-07-26T09:23:11.807Z,67.50
2022-07-26T09:24:11.798Z,73.12
2022-07-26T09:25:11.812Z,78.75
2022-07-26T09:26:11.783Z,84.38
2022-07-26T09:27:11.785Z,84.38
2022-07-26T09:28:11.762Z,90.00
2022-07-26T09:29:12.254Z,106.88
2022-07-26T09:30:11.740Z,101.25
2022-07-26T09:31:11.763Z,90.00
2022-07-26T09:32:11.721Z,95.62
2022-07-26T09:33:11.712Z,95.62
2022-07-26T09:34:12.016Z,95.62
2022-07-26T09:35:44.194Z,95.62
2022-07-26T09:36:11.697Z,101.25
2022-07-26T09:37:12.582Z,106.88
2022-07-26T09:38:11.663Z,106.88
2022-07-26T09:39:12.149Z,106.88
2022-07-26T09:40:11.660Z,106.88
2022-07-26T09:41:11.647Z,106.88
2022-07-26T09:42:27.323Z,106.88
2022-07-26T09:43:11.662Z,106.88
2022-07-26T09:44:11.962Z,106.88
2022-07-26T09:45:11.612Z,106.88
2022-07-26T09:46:11.664Z,106.88
2022-07-26T09:47:11.618Z,106.88
2022-07-26T09:48:11.580Z,106.88
2022-07-26T09:49:12.296Z,101.25
2022-07-26T09:50:12.054Z,101.25
2022-07-26T09:51:11.560Z,101.25
2022-07-26T09:52:11.554Z,101.25
2022-07-26T09:53:11.554Z,101.25
2022-07-26T09:54:11.939Z,101.25
2022-07-26T09:55:11.542Z,95.62
2022-07-26T09:56:11.516Z,95.62
2022-07-26T09:57:11.515Z,106.88
2022-07-26T09:58:11.492Z,106.88
2022-07-26T09:59:11.497Z,106.88
2022-07-26T10:00:11.488Z,129.38
2022-07-26T10:01:11.484Z,118.12
2022-07-26T10:02:11.510Z,135.00
2022-07-26T10:03:11.511Z,123.75
2022-07-26T10:04:11.872Z,151.88
2022-07-26T10:05:11.436Z,180.00
2022-07-26T10:06:11.415Z,151.88
2022-07-26T10:07:11.437Z,151.88
2022-07-26T10:08:11.410Z,123.75
2022-07-26T10:09:11.398Z,140.62
2022-07-26T10:10:11.396Z,129.38
2022-07-26T10:11:11.391Z,129.38
2022-07-26T10:12:11.369Z,135.00
2022-07-26T10:13:11.393Z,123.75
2022-07-26T10:14:11.739Z,123.75
2022-07-26T10:15:11.366Z,118.12
2022-07-26T10:16:11.378Z,157.50
2022-07-26T10:17:11.335Z,118.12
2022-07-26T10:18:16.785Z,140.62
2022-07-26T10:19:11.357Z,112.50
2022-07-26T10:20:17.373Z,106.88
2022-07-26T10:21:11.293Z,118.12
2022-07-26T10:22:11.283Z,202.50
2022-07-26T10:23:11.294Z,135.00
2022-07-26T10:24:11.682Z,106.88
2022-07-26T10:25:11.287Z,101.25
2022-07-26T10:26:11.247Z,106.88
2022-07-26T10:27:11.257Z,101.25
2022-07-26T10:28:11.785Z,106.88
2022-07-26T10:29:11.227Z,140.62
2022-07-26T10:30:11.219Z,168.75
2022-07-26T10:31:11.271Z,174.38
2022-07-26T10:32:11.205Z,174.38
2022-07-26T10:33:11.191Z,135.00
2022-07-26T10:34:11.575Z,168.75
2022-07-26T10:35:11.189Z,101.25
2022-07-26T10:36:11.159Z,95.62
2022-07-26T10:37:11.161Z,84.38
2022-07-26T10:38:11.736Z,90.00
2022-07-26T10:39:11.131Z,180.00
2022-07-26T10:40:11.160Z,157.50
2022-07-26T10:41:11.137Z,106.88
2022-07-26T10:42:11.112Z,101.25
2022-07-26T10:44:11.512Z,129.38
2022-07-26T10:45:11.099Z,118.12
2022-07-26T10:46:11.125Z,95.62
2022-07-26T10:47:11.088Z,118.12
2022-07-26T10:48:11.055Z,185.62
2022-07-26T10:49:11.120Z,129.38
2022-07-26T10:50:11.124Z,101.25
2022-07-26T10:51:11.039Z,106.88
2022-07-26T10:52:11.025Z,106.88
2022-07-26T10:53:11.020Z,168.75
2022-07-26T10:54:11.463Z,112.50
2022-07-26T10:55:11.040Z,174.38
2022-07-26T10:56:10.988Z,140.62
2022-07-26T10:57:10.991Z,191.25
2022-07-26T10:58:10.980Z,95.62
2022-07-26T10:59:10.971Z,106.88
2022-07-26T11:00:10.976Z,123.75
2022-07-26T11:01:11.011Z,123.75
2022-07-26T11:02:11.008Z,174.38
2022-07-26T11:03:11.003Z,146.25
2022-07-26T11:04:11.286Z,163.12
2022-07-26T11:05:10.925Z,174.38
2022-07-26T11:06:10.917Z,174.38
2022-07-26T11:07:10.948Z,168.75
2022-07-26T11:08:11.012Z,163.12
2022-07-26T11:09:10.899Z,168.75
2022-07-26T11:10:10.885Z,106.88
2022-07-26T11:11:10.891Z,174.38
2022-07-26T11:12:10.871Z,168.75
2022-07-26T11:13:10.878Z,168.75
2022-07-26T11:14:11.259Z,129.38
2022-07-26T11:15:10.861Z,112.50
2022-07-26T11:16:10.878Z,135.00
2022-07-26T11:17:10.841Z,157.50
2022-07-26T11:18:10.831Z,151.88
2022-07-26T11:19:10.854Z,112.50
2022-07-26T11:20:10.800Z,95.62
2022-07-26T11:21:10.805Z,90.00
2022-07-26T11:22:10.783Z,157.50
2022-07-26T11:23:10.795Z,146.25
2022-07-26T11:24:11.240Z,157.50
2022-07-26T11:25:10.787Z,151.88
2022-07-26T11:26:10.753Z,157.50
2022-07-26T11:27:10.757Z,157.50
2022-07-26T11:28:10.735Z,146.25
2022-07-26T11:29:10.739Z,118.12
2022-07-26T11:30:10.720Z,135.00
2022-07-26T11:31:10.765Z,129.38
2022-07-26T11:32:16.992Z,123.75
2022-07-26T11:33:10.699Z,123.75
2022-07-26T11:34:11.403Z,123.75
2022-07-26T11:35:10.691Z,123.75
2022-07-26T11:36:10.668Z,123.75
2022-07-26T11:37:10.703Z,45.00
2022-07-26T11:38:12.357Z,123.75
2022-07-26T11:39:10.661Z,129.38
2022-07-26T11:40:10.654Z,129.38
2022-07-26T11:41:10.630Z,129.38
2022-07-26T11:42:10.624Z,90.00
2022-07-26T11:43:10.632Z,118.12
2022-07-26T11:44:10.965Z,106.88
2022-07-26T11:45:10.615Z,118.12
2022-07-26T11:46:10.631Z,123.75
2022-07-26T11:47:10.583Z,67.50
2022-07-26T11:48:10.563Z,78.75
2022-07-26T11:49:10.646Z,67.50
2022-07-26T11:50:18.311Z,73.12
2022-07-26T11:51:10.565Z,67.50
2022-07-26T11:52:10.548Z,67.50
2022-07-26T11:53:10.548Z,67.50
2022-07-26T11:54:10.909Z,67.50
2022-07-26T11:55:10.543Z,61.88
2022-07-26T11:56:10.512Z,67.50
2022-07-26T11:57:10.500Z,67.50
2022-07-26T11:58:10.498Z,61.88
2022-07-26T11:59:10.479Z,61.88
2022-07-26T12:00:10.486Z,67.50
2022-07-26T12:01:10.480Z,67.50
2022-07-26T12:02:10.464Z,67.50
2022-07-26T12:03:10.461Z,61.88
2022-07-26T12:04:10.752Z,56.25
2022-07-26T12:05:10.642Z,50.62
2022-07-26T12:06:10.426Z,50.62
2022-07-26T12:07:10.446Z,56.25
2022-07-26T12:08:10.415Z,61.88
2022-07-26T12:09:10.395Z,61.88
2022-07-26T12:10:10.399Z,67.50
2022-07-26T12:11:10.399Z,61.88
2022-07-26T12:12:10.368Z,56.25
2022-07-26T12:13:10.388Z,56.25
2022-07-26T12:14:14.900Z,56.25
2022-07-26T12:15:10.347Z,56.25
2022-07-26T12:16:10.397Z,50.62
2022-07-26T12:17:10.340Z,50.62
2022-07-26T12:18:10.317Z,50.62
2022-07-26T12:19:10.337Z,45.00
2022-07-26T12:20:10.298Z,45.00
2022-07-26T12:21:10.311Z,39.38
2022-07-26T12:22:12.270Z,39.38
2022-07-26T12:23:10.294Z,39.38
2022-07-26T12:24:10.743Z,39.38
2022-07-26T12:25:10.282Z,45.00
2022-07-26T12:26:10.260Z,50.62
2022-07-26T12:27:10.256Z,61.88
2022-07-26T12:28:10.243Z,61.88
2022-07-26T12:29:10.234Z,61.88
2022-07-26T12:30:10.227Z,61.88
2022-07-26T12:31:10.292Z,61.88
2022-07-26T12:32:12.513Z,56.25
2022-07-26T12:33:10.198Z,61.88
2022-07-26T12:34:10.469Z,61.88
2022-07-26T12:35:10.190Z,61.88
2022-07-26T12:36:10.189Z,67.50
2022-07-26T12:37:10.185Z,67.50
2022-07-26T12:38:10.157Z,61.88
2022-07-26T12:39:10.161Z,56.25
2022-07-26T12:40:10.147Z,56.25
2022-07-26T12:41:10.128Z,56.25
2022-07-26T12:42:10.131Z,56.25
2022-07-26T12:43:10.180Z,56.25
2022-07-26T12:44:10.338Z,67.50
2022-07-26T12:45:10.108Z,61.88
2022-07-26T12:46:10.211Z,56.25
2022-07-26T12:47:10.082Z,50.62
2022-07-26T12:48:10.152Z,50.62
2022-07-26T12:49:10.153Z,106.88
2022-07-26T12:50:10.077Z,73.12
2022-07-26T12:51:10.064Z,73.12
2022-07-26T12:52:10.045Z,56.25
2022-07-26T12:53:11.424Z,50.62
2022-07-26T12:54:10.248Z,61.88
2022-07-26T12:55:10.038Z,56.25
2022-07-26T12:56:10.030Z,56.25
2022-07-26T12:57:10.011Z,56.25
2022-07-26T12:58:10.034Z,56.25
2022-07-26T12:59:10.000Z,61.88
2022-07-26T13:00:10.000Z,61.88
2022-07-26T13:01:10.008Z,61.88
2022-07-26T13:02:09.960Z,56.25